sensor_id;sensor_type;location;lat;lon;timestamp;P1;durP1;ratioP1;P2;durP2;ratioP2
13345;SDS011;6742;48.036;15.780;2023-06-22T00:01:00;5.82;;;3.55;;
13345;SDS011;6742;48.036;15.780;2023-06-22T00:03:26;5.95;;;3.45;;
13345;SDS011;6742;48.036;15.780;2023-06-22T00:05:53;5.57;;;3.88;;
13345;SDS011;6742;48.036;15.780;2023-06-22T00:08:22;4.85;;;4.10;;
13345;SDS011;6742;48.036;15.780;2023-06-22T00:10:49;3.60;;;3.22;;
13345;SDS011;6742;48.036;15.780;2023-06-22T00:13:16;7.25;;;3.60;;
13345;SDS011;6742;48.036;15.780;2023-06-22T00:15:43;6.97;;;3.63;;
13345;SDS011;6742;48.036;15.780;2023-06-22T00:18:10;6.15;;;3.45;;
13345;SDS011;6742;48.036;15.780;2023-06-22T00:20:38;7.47;;;3.88;;
13345;SDS011;6742;48.036;15.780;2023-06-22T00:23:05;5.63;;;3.50;;
13345;SDS011;6742;48.036;15.780;2023-06-22T00:25:35;6.10;;;3.40;;
13345;SDS011;6742;48.036;15.780;2023-06-22T00:28:03;5.28;;;3.28;;
13345;SDS011;6742;48.036;15.780;2023-06-22T00:30:31;6.32;;;3.60;;
13345;SDS011;6742;48.036;15.780;2023-06-22T00:32:58;5.85;;;3.50;;
13345;SDS011;6742;48.036;15.780;2023-06-22T00:35:25;4.68;;;3.60;;
13345;SDS011;6742;48.036;15.780;2023-06-22T00:37:54;5.28;;;3.90;;
13345;SDS011;6742;48.036;15.780;2023-06-22T00:40:25;5.90;;;3.53;;
13345;SDS011;6742;48.036;15.780;2023-06-22T00:42:54;5.68;;;3.88;;
13345;SDS011;6742;48.036;15.780;2023-06-22T00:45:21;6.38;;;3.88;;
13345;SDS011;6742;48.036;15.780;2023-06-22T00:47:49;4.72;;;3.70;;
13345;SDS011;6742;48.036;15.780;2023-06-22T00:50:18;5.55;;;3.58;;
13345;SDS011;6742;48.036;15.780;2023-06-22T00:52:48;4.90;;;3.53;;
13345;SDS011;6742;48.036;15.780;2023-06-22T00:55:17;6.07;;;3.42;;
13345;SDS011;6742;48.036;15.780;2023-06-22T00:57:45;6.20;;;3.45;;
13345;SDS011;6742;48.036;15.780;2023-06-22T01:00:15;5.00;;;2.92;;
13345;SDS011;6742;48.036;15.780;2023-06-22T01:02:44;6.20;;;3.60;;
13345;SDS011;6742;48.036;15.780;2023-06-22T01:05:12;5.65;;;4.07;;
13345;SDS011;6742;48.036;15.780;2023-06-22T01:07:40;7.47;;;3.70;;
13345;SDS011;6742;48.036;15.780;2023-06-22T01:10:18;5.18;;;3.55;;
13345;SDS011;6742;48.036;15.780;2023-06-22T01:12:50;5.15;;;3.40;;
13345;SDS011;6742;48.036;15.780;2023-06-22T01:15:23;6.07;;;3.30;;
13345;SDS011;6742;48.036;15.780;2023-06-22T01:17:54;5.88;;;3.53;;
13345;SDS011;6742;48.036;15.780;2023-06-22T01:20:23;4.22;;;3.63;;
13345;SDS011;6742;48.036;15.780;2023-06-22T01:22:57;5.43;;;3.85;;
13345;SDS011;6742;48.036;15.780;2023-06-22T01:25:37;5.80;;;4.13;;
13345;SDS011;6742;48.036;15.780;2023-06-22T01:28:17;5.60;;;3.22;;
13345;SDS011;6742;48.036;15.780;2023-06-22T01:30:52;5.82;;;3.22;;
13345;SDS011;6742;48.036;15.780;2023-06-22T01:33:31;4.60;;;3.65;;
13345;SDS011;6742;48.036;15.780;2023-06-22T01:36:00;6.18;;;3.80;;
13345;SDS011;6742;48.036;15.780;2023-06-22T01:38:28;5.32;;;3.90;;
13345;SDS011;6742;48.036;15.780;2023-06-22T01:40:56;5.20;;;3.55;;
13345;SDS011;6742;48.036;15.780;2023-06-22T01:43:24;5.57;;;3.38;;
13345;SDS011;6742;48.036;15.780;2023-06-22T01:45:54;6.72;;;3.95;;
13345;SDS011;6742;48.036;15.780;2023-06-22T01:48:21;5.20;;;3.67;;
13345;SDS011;6742;48.036;15.780;2023-06-22T01:50:50;5.45;;;3.55;;
13345;SDS011;6742;48.036;15.780;2023-06-22T01:53:20;5.35;;;3.80;;
13345;SDS011;6742;48.036;15.780;2023-06-22T01:55:47;4.82;;;4.00;;
13345;SDS011;6742;48.036;15.780;2023-06-22T01:58:14;4.85;;;3.90;;
13345;SDS011;6742;48.036;15.780;2023-06-22T02:00:48;7.22;;;3.85;;
13345;SDS011;6742;48.036;15.780;2023-06-22T02:03:21;6.88;;;3.85;;
13345;SDS011;6742;48.036;15.780;2023-06-22T02:05:56;4.80;;;3.53;;
13345;SDS011;6742;48.036;15.780;2023-06-22T02:08:29;7.57;;;4.18;;
13345;SDS011;6742;48.036;15.780;2023-06-22T02:11:01;7.32;;;4.32;;
13345;SDS011;6742;48.036;15.780;2023-06-22T02:13:29;5.28;;;3.85;;
13345;SDS011;6742;48.036;15.780;2023-06-22T02:15:58;6.47;;;4.00;;
13345;SDS011;6742;48.036;15.780;2023-06-22T02:18:27;4.50;;;3.53;;
13345;SDS011;6742;48.036;15.780;2023-06-22T02:20:54;6.53;;;4.13;;
13345;SDS011;6742;48.036;15.780;2023-06-22T02:23:21;5.75;;;3.55;;
13345;SDS011;6742;48.036;15.780;2023-06-22T02:25:48;5.28;;;3.97;;
13345;SDS011;6742;48.036;15.780;2023-06-22T02:28:15;7.40;;;3.60;;
13345;SDS011;6742;48.036;15.780;2023-06-22T02:30:42;8.45;;;4.15;;
13345;SDS011;6742;48.036;15.780;2023-06-22T02:33:09;7.80;;;4.22;;
13345;SDS011;6742;48.036;15.780;2023-06-22T02:35:38;7.32;;;4.35;;
13345;SDS011;6742;48.036;15.780;2023-06-22T02:38:05;5.97;;;3.83;;
13345;SDS011;6742;48.036;15.780;2023-06-22T02:40:33;7.20;;;3.88;;
13345;SDS011;6742;48.036;15.780;2023-06-22T02:43:00;4.95;;;3.65;;
13345;SDS011;6742;48.036;15.780;2023-06-22T02:45:28;4.97;;;3.97;;
13345;SDS011;6742;48.036;15.780;2023-06-22T02:47:55;5.07;;;3.78;;
13345;SDS011;6742;48.036;15.780;2023-06-22T02:50:22;5.43;;;3.67;;
13345;SDS011;6742;48.036;15.780;2023-06-22T02:52:50;5.43;;;3.80;;
13345;SDS011;6742;48.036;15.780;2023-06-22T02:55:17;5.18;;;4.00;;
13345;SDS011;6742;48.036;15.780;2023-06-22T02:57:44;4.38;;;3.63;;
13345;SDS011;6742;48.036;15.780;2023-06-22T03:00:13;5.28;;;3.80;;
13345;SDS011;6742;48.036;15.780;2023-06-22T03:02:43;5.28;;;3.78;;
13345;SDS011;6742;48.036;15.780;2023-06-22T03:05:10;5.22;;;3.90;;
13345;SDS011;6742;48.036;15.780;2023-06-22T03:07:39;6.90;;;4.20;;
13345;SDS011;6742;48.036;15.780;2023-06-22T03:10:09;6.50;;;4.07;;
13345;SDS011;6742;48.036;15.780;2023-06-22T03:12:36;5.07;;;4.00;;
13345;SDS011;6742;48.036;15.780;2023-06-22T03:15:04;5.75;;;3.83;;
13345;SDS011;6742;48.036;15.780;2023-06-22T03:17:33;5.38;;;3.65;;
13345;SDS011;6742;48.036;15.780;2023-06-22T03:20:00;5.45;;;4.10;;
13345;SDS011;6742;48.036;15.780;2023-06-22T03:22:32;5.53;;;3.60;;
13345;SDS011;6742;48.036;15.780;2023-06-22T03:24:59;7.93;;;4.00;;
13345;SDS011;6742;48.036;15.780;2023-06-22T03:27:27;4.97;;;4.05;;
13345;SDS011;6742;48.036;15.780;2023-06-22T03:29:54;7.07;;;4.00;;
13345;SDS011;6742;48.036;15.780;2023-06-22T03:32:22;4.65;;;3.90;;
13345;SDS011;6742;48.036;15.780;2023-06-22T03:34:50;4.70;;;3.70;;
13345;SDS011;6742;48.036;15.780;2023-06-22T03:37:17;5.93;;;4.32;;
13345;SDS011;6742;48.036;15.780;2023-06-22T03:39:44;6.38;;;4.05;;
13345;SDS011;6742;48.036;15.780;2023-06-22T03:42:11;8.00;;;4.32;;
13345;SDS011;6742;48.036;15.780;2023-06-22T03:44:39;6.55;;;4.20;;
13345;SDS011;6742;48.036;15.780;2023-06-22T03:47:06;7.65;;;3.80;;
13345;SDS011;6742;48.036;15.780;2023-06-22T03:49:33;5.68;;;3.97;;
13345;SDS011;6742;48.036;15.780;2023-06-22T03:52:01;6.75;;;3.90;;
13345;SDS011;6742;48.036;15.780;2023-06-22T03:54:28;6.30;;;3.88;;
13345;SDS011;6742;48.036;15.780;2023-06-22T03:56:56;6.75;;;4.00;;
13345;SDS011;6742;48.036;15.780;2023-06-22T03:59:23;5.38;;;4.07;;
13345;SDS011;6742;48.036;15.780;2023-06-22T04:01:52;4.72;;;4.05;;
13345;SDS011;6742;48.036;15.780;2023-06-22T04:04:19;8.98;;;4.20;;
13345;SDS011;6742;48.036;15.780;2023-06-22T04:06:46;6.40;;;4.22;;
13345;SDS011;6742;48.036;15.780;2023-06-22T04:09:13;7.38;;;4.18;;
13345;SDS011;6742;48.036;15.780;2023-06-22T04:11:40;6.35;;;4.43;;
13345;SDS011;6742;48.036;15.780;2023-06-22T04:14:07;6.35;;;4.18;;
13345;SDS011;6742;48.036;15.780;2023-06-22T04:16:34;7.60;;;4.13;;
13345;SDS011;6742;48.036;15.780;2023-06-22T04:19:02;5.78;;;4.30;;
13345;SDS011;6742;48.036;15.780;2023-06-22T04:21:29;5.32;;;3.92;;
13345;SDS011;6742;48.036;15.780;2023-06-22T04:23:56;5.68;;;4.07;;
13345;SDS011;6742;48.036;15.780;2023-06-22T04:26:23;8.55;;;4.18;;
13345;SDS011;6742;48.036;15.780;2023-06-22T04:28:50;7.40;;;4.10;;
13345;SDS011;6742;48.036;15.780;2023-06-22T04:31:20;6.53;;;4.00;;
13345;SDS011;6742;48.036;15.780;2023-06-22T04:33:57;9.13;;;4.30;;
13345;SDS011;6742;48.036;15.780;2023-06-22T04:36:31;8.52;;;4.30;;
13345;SDS011;6742;48.036;15.780;2023-06-22T04:39:03;7.57;;;4.30;;
13345;SDS011;6742;48.036;15.780;2023-06-22T04:41:34;7.72;;;4.63;;
13345;SDS011;6742;48.036;15.780;2023-06-22T04:44:08;9.07;;;4.28;;
13345;SDS011;6742;48.036;15.780;2023-06-22T04:46:35;6.20;;;4.20;;
13345;SDS011;6742;48.036;15.780;2023-06-22T04:49:04;6.15;;;3.78;;
13345;SDS011;6742;48.036;15.780;2023-06-22T04:51:36;5.80;;;4.00;;
13345;SDS011;6742;48.036;15.780;2023-06-22T04:54:04;8.27;;;3.90;;
13345;SDS011;6742;48.036;15.780;2023-06-22T04:56:31;5.53;;;3.75;;
13345;SDS011;6742;48.036;15.780;2023-06-22T04:58:58;7.70;;;3.70;;
13345;SDS011;6742;48.036;15.780;2023-06-22T05:01:25;5.43;;;3.47;;
13345;SDS011;6742;48.036;15.780;2023-06-22T05:03:52;7.35;;;3.63;;
13345;SDS011;6742;48.036;15.780;2023-06-22T05:06:22;4.45;;;3.65;;
13345;SDS011;6742;48.036;15.780;2023-06-22T05:08:52;7.63;;;3.90;;
13345;SDS011;6742;48.036;15.780;2023-06-22T05:11:22;4.97;;;3.50;;
13345;SDS011;6742;48.036;15.780;2023-06-22T05:13:49;6.57;;;3.88;;
13345;SDS011;6742;48.036;15.780;2023-06-22T05:16:16;5.05;;;3.70;;
13345;SDS011;6742;48.036;15.780;2023-06-22T05:18:49;6.70;;;4.15;;
13345;SDS011;6742;48.036;15.780;2023-06-22T05:21:17;7.10;;;3.92;;
13345;SDS011;6742;48.036;15.780;2023-06-22T05:23:44;11.25;;;4.05;;
13345;SDS011;6742;48.036;15.780;2023-06-22T05:26:12;6.25;;;4.30;;
13345;SDS011;6742;48.036;15.780;2023-06-22T05:28:39;8.13;;;4.70;;
13345;SDS011;6742;48.036;15.780;2023-06-22T05:31:06;7.20;;;4.13;;
13345;SDS011;6742;48.036;15.780;2023-06-22T05:33:33;4.72;;;4.10;;
13345;SDS011;6742;48.036;15.780;2023-06-22T05:36:00;5.75;;;4.03;;
13345;SDS011;6742;48.036;15.780;2023-06-22T05:38:27;4.95;;;3.60;;
13345;SDS011;6742;48.036;15.780;2023-06-22T05:40:54;4.80;;;3.80;;
13345;SDS011;6742;48.036;15.780;2023-06-22T05:43:22;8.43;;;4.53;;
13345;SDS011;6742;48.036;15.780;2023-06-22T05:45:49;9.45;;;4.20;;
13345;SDS011;6742;48.036;15.780;2023-06-22T05:48:17;10.30;;;4.38;;
13345;SDS011;6742;48.036;15.780;2023-06-22T05:50:44;11.43;;;4.80;;
13345;SDS011;6742;48.036;15.780;2023-06-22T05:53:11;10.80;;;4.10;;
13345;SDS011;6742;48.036;15.780;2023-06-22T05:55:38;6.70;;;4.32;;
13345;SDS011;6742;48.036;15.780;2023-06-22T05:58:05;7.90;;;4.28;;
13345;SDS011;6742;48.036;15.780;2023-06-22T06:00:34;7.72;;;3.92;;
13345;SDS011;6742;48.036;15.780;2023-06-22T06:03:01;8.63;;;4.30;;
13345;SDS011;6742;48.036;15.780;2023-06-22T06:05:28;7.22;;;4.22;;
13345;SDS011;6742;48.036;15.780;2023-06-22T06:07:55;8.35;;;4.00;;
13345;SDS011;6742;48.036;15.780;2023-06-22T06:10:22;8.93;;;4.57;;
13345;SDS011;6742;48.036;15.780;2023-06-22T06:12:49;8.05;;;4.63;;
13345;SDS011;6742;48.036;15.780;2023-06-22T06:15:16;8.15;;;4.32;;
13345;SDS011;6742;48.036;15.780;2023-06-22T06:17:48;8.93;;;4.57;;
13345;SDS011;6742;48.036;15.780;2023-06-22T06:20:15;10.45;;;5.13;;
13345;SDS011;6742;48.036;15.780;2023-06-22T06:22:44;10.65;;;4.45;;
13345;SDS011;6742;48.036;15.780;2023-06-22T06:25:11;9.70;;;4.72;;
13345;SDS011;6742;48.036;15.780;2023-06-22T06:27:41;11.23;;;4.53;;
13345;SDS011;6742;48.036;15.780;2023-06-22T06:30:09;8.95;;;3.83;;
13345;SDS011;6742;48.036;15.780;2023-06-22T06:32:37;12.00;;;3.92;;
13345;SDS011;6742;48.036;15.780;2023-06-22T06:35:06;10.23;;;4.05;;
13345;SDS011;6742;48.036;15.780;2023-06-22T06:37:36;7.07;;;3.90;;
13345;SDS011;6742;48.036;15.780;2023-06-22T06:40:04;8.40;;;3.50;;
13345;SDS011;6742;48.036;15.780;2023-06-22T06:42:33;7.32;;;3.38;;
13345;SDS011;6742;48.036;15.780;2023-06-22T06:45:00;6.68;;;3.60;;
13345;SDS011;6742;48.036;15.780;2023-06-22T06:47:27;9.63;;;4.10;;
13345;SDS011;6742;48.036;15.780;2023-06-22T06:49:54;10.00;;;3.80;;
13345;SDS011;6742;48.036;15.780;2023-06-22T06:52:22;9.48;;;4.13;;
13345;SDS011;6742;48.036;15.780;2023-06-22T06:54:49;9.00;;;4.00;;
13345;SDS011;6742;48.036;15.780;2023-06-22T06:57:18;9.20;;;4.13;;
13345;SDS011;6742;48.036;15.780;2023-06-22T06:59:46;8.95;;;4.30;;
13345;SDS011;6742;48.036;15.780;2023-06-22T07:02:12;7.85;;;3.83;;
13345;SDS011;6742;48.036;15.780;2023-06-22T07:04:39;7.18;;;4.15;;
13345;SDS011;6742;48.036;15.780;2023-06-22T07:07:06;7.07;;;3.90;;
13345;SDS011;6742;48.036;15.780;2023-06-22T07:09:37;6.88;;;3.97;;
13345;SDS011;6742;48.036;15.780;2023-06-22T07:12:05;10.05;;;4.57;;
13345;SDS011;6742;48.036;15.780;2023-06-22T07:14:32;8.50;;;4.72;;
13345;SDS011;6742;48.036;15.780;2023-06-22T07:16:59;6.22;;;4.30;;
13345;SDS011;6742;48.036;15.780;2023-06-22T07:19:26;6.88;;;4.53;;
13345;SDS011;6742;48.036;15.780;2023-06-22T07:21:53;6.80;;;4.22;;
13345;SDS011;6742;48.036;15.780;2023-06-22T07:24:21;8.38;;;4.72;;
13345;SDS011;6742;48.036;15.780;2023-06-22T07:26:50;7.57;;;4.75;;
13345;SDS011;6742;48.036;15.780;2023-06-22T07:29:17;6.68;;;4.80;;
13345;SDS011;6742;48.036;15.780;2023-06-22T07:31:45;7.22;;;4.90;;
13345;SDS011;6742;48.036;15.780;2023-06-22T07:34:12;7.07;;;4.72;;
13345;SDS011;6742;48.036;15.780;2023-06-22T07:36:39;7.70;;;5.13;;
13345;SDS011;6742;48.036;15.780;2023-06-22T07:39:06;7.25;;;4.43;;
13345;SDS011;6742;48.036;15.780;2023-06-22T07:41:33;6.93;;;4.45;;
13345;SDS011;6742;48.036;15.780;2023-06-22T07:44:04;6.63;;;4.45;;
13345;SDS011;6742;48.036;15.780;2023-06-22T07:46:31;9.10;;;5.43;;
13345;SDS011;6742;48.036;15.780;2023-06-22T07:48:58;6.68;;;4.80;;
13345;SDS011;6742;48.036;15.780;2023-06-22T07:51:26;9.73;;;4.70;;
13345;SDS011;6742;48.036;15.780;2023-06-22T07:53:53;8.95;;;5.22;;
13345;SDS011;6742;48.036;15.780;2023-06-22T07:56:20;7.05;;;4.90;;
13345;SDS011;6742;48.036;15.780;2023-06-22T07:58:47;8.95;;;5.00;;
13345;SDS011;6742;48.036;15.780;2023-06-22T08:01:15;8.50;;;5.45;;
13345;SDS011;6742;48.036;15.780;2023-06-22T08:03:45;6.57;;;5.05;;
13345;SDS011;6742;48.036;15.780;2023-06-22T08:06:13;7.43;;;5.07;;
13345;SDS011;6742;48.036;15.780;2023-06-22T08:08:40;9.63;;;5.47;;
13345;SDS011;6742;48.036;15.780;2023-06-22T08:11:07;7.90;;;5.28;;
13345;SDS011;6742;48.036;15.780;2023-06-22T08:13:34;7.35;;;5.60;;
13345;SDS011;6742;48.036;15.780;2023-06-22T08:16:01;7.95;;;5.47;;
13345;SDS011;6742;48.036;15.780;2023-06-22T08:18:29;6.95;;;5.55;;
13345;SDS011;6742;48.036;15.780;2023-06-22T08:20:56;8.68;;;5.90;;
13345;SDS011;6742;48.036;15.780;2023-06-22T08:23:23;7.13;;;5.65;;
13345;SDS011;6742;48.036;15.780;2023-06-22T08:25:50;8.43;;;5.93;;
13345;SDS011;6742;48.036;15.780;2023-06-22T08:28:17;9.77;;;5.90;;
13345;SDS011;6742;48.036;15.780;2023-06-22T08:30:44;8.73;;;6.00;;
13345;SDS011;6742;48.036;15.780;2023-06-22T08:33:14;10.13;;;6.53;;
13345;SDS011;6742;48.036;15.780;2023-06-22T08:35:42;9.35;;;5.75;;
13345;SDS011;6742;48.036;15.780;2023-06-22T08:38:09;8.73;;;6.10;;
13345;SDS011;6742;48.036;15.780;2023-06-22T08:40:39;11.35;;;6.28;;
13345;SDS011;6742;48.036;15.780;2023-06-22T08:43:05;7.50;;;5.80;;
13345;SDS011;6742;48.036;15.780;2023-06-22T08:45:32;7.20;;;6.00;;
13345;SDS011;6742;48.036;15.780;2023-06-22T08:47:59;9.80;;;6.13;;
13345;SDS011;6742;48.036;15.780;2023-06-22T08:50:26;12.00;;;6.05;;
13345;SDS011;6742;48.036;15.780;2023-06-22T08:52:54;6.22;;;5.53;;
13345;SDS011;6742;48.036;15.780;2023-06-22T08:55:21;8.32;;;5.88;;
13345;SDS011;6742;48.036;15.780;2023-06-22T08:57:48;9.30;;;5.53;;
13345;SDS011;6742;48.036;15.780;2023-06-22T09:00:16;9.18;;;5.90;;
13345;SDS011;6742;48.036;15.780;2023-06-22T09:02:45;6.43;;;5.43;;
13345;SDS011;6742;48.036;15.780;2023-06-22T09:05:13;9.20;;;6.47;;
13345;SDS011;6742;48.036;15.780;2023-06-22T09:07:40;9.80;;;6.15;;
13345;SDS011;6742;48.036;15.780;2023-06-22T09:10:09;13.55;;;5.95;;
13345;SDS011;6742;48.036;15.780;2023-06-22T09:12:36;9.20;;;6.50;;
13345;SDS011;6742;48.036;15.780;2023-06-22T09:15:04;13.00;;;5.68;;
13345;SDS011;6742;48.036;15.780;2023-06-22T09:17:32;9.77;;;6.10;;
13345;SDS011;6742;48.036;15.780;2023-06-22T09:20:00;10.45;;;6.32;;
13345;SDS011;6742;48.036;15.780;2023-06-22T09:22:30;7.43;;;6.03;;
13345;SDS011;6742;48.036;15.780;2023-06-22T09:24:58;7.43;;;6.03;;
13345;SDS011;6742;48.036;15.780;2023-06-22T09:27:27;6.63;;;5.95;;
13345;SDS011;6742;48.036;15.780;2023-06-22T09:29:54;8.05;;;5.80;;
13345;SDS011;6742;48.036;15.780;2023-06-22T09:32:23;9.10;;;6.25;;
13345;SDS011;6742;48.036;15.780;2023-06-22T09:34:50;11.38;;;6.60;;
13345;SDS011;6742;48.036;15.780;2023-06-22T09:37:18;8.23;;;6.00;;
13345;SDS011;6742;48.036;15.780;2023-06-22T09:39:45;10.38;;;6.25;;
13345;SDS011;6742;48.036;15.780;2023-06-22T09:42:12;7.35;;;5.82;;
13345;SDS011;6742;48.036;15.780;2023-06-22T09:44:40;8.57;;;6.65;;
13345;SDS011;6742;48.036;15.780;2023-06-22T09:47:08;11.10;;;6.30;;
13345;SDS011;6742;48.036;15.780;2023-06-22T09:49:35;10.02;;;6.10;;
13345;SDS011;6742;48.036;15.780;2023-06-22T09:52:01;9.43;;;5.97;;
13345;SDS011;6742;48.036;15.780;2023-06-22T09:54:29;11.27;;;6.18;;
13345;SDS011;6742;48.036;15.780;2023-06-22T09:56:56;9.23;;;6.47;;
13345;SDS011;6742;48.036;15.780;2023-06-22T09:59:23;8.07;;;6.35;;
13345;SDS011;6742;48.036;15.780;2023-06-22T10:01:51;9.05;;;6.00;;
13345;SDS011;6742;48.036;15.780;2023-06-22T10:04:18;7.65;;;5.68;;
13345;SDS011;6742;48.036;15.780;2023-06-22T10:06:45;7.97;;;5.30;;
13345;SDS011;6742;48.036;15.780;2023-06-22T10:09:12;9.50;;;6.13;;
13345;SDS011;6742;48.036;15.780;2023-06-22T10:11:39;9.23;;;5.82;;
13345;SDS011;6742;48.036;15.780;2023-06-22T10:14:06;8.82;;;5.88;;
13345;SDS011;6742;48.036;15.780;2023-06-22T10:16:33;12.05;;;6.43;;
13345;SDS011;6742;48.036;15.780;2023-06-22T10:19:03;8.60;;;6.03;;
13345;SDS011;6742;48.036;15.780;2023-06-22T10:21:30;9.20;;;6.25;;
13345;SDS011;6742;48.036;15.780;2023-06-22T10:23:57;11.48;;;6.13;;
13345;SDS011;6742;48.036;15.780;2023-06-22T10:26:30;6.05;;;5.40;;
13345;SDS011;6742;48.036;15.780;2023-06-22T10:28:57;12.13;;;6.18;;
13345;SDS011;6742;48.036;15.780;2023-06-22T10:31:24;11.55;;;6.05;;
13345;SDS011;6742;48.036;15.780;2023-06-22T10:33:52;6.82;;;5.38;;
13345;SDS011;6742;48.036;15.780;2023-06-22T10:36:21;10.80;;;6.25;;
13345;SDS011;6742;48.036;15.780;2023-06-22T10:38:48;6.93;;;5.60;;
13345;SDS011;6742;48.036;15.780;2023-06-22T10:41:15;8.63;;;5.20;;
13345;SDS011;6742;48.036;15.780;2023-06-22T10:43:42;6.88;;;5.00;;
13345;SDS011;6742;48.036;15.780;2023-06-22T10:46:09;7.97;;;5.43;;
13345;SDS011;6742;48.036;15.780;2023-06-22T10:48:36;7.13;;;4.90;;
13345;SDS011;6742;48.036;15.780;2023-06-22T10:51:03;7.28;;;5.35;;
13345;SDS011;6742;48.036;15.780;2023-06-22T10:53:31;8.93;;;4.88;;
13345;SDS011;6742;48.036;15.780;2023-06-22T10:55:58;9.90;;;4.95;;
13345;SDS011;6742;48.036;15.780;2023-06-22T10:58:25;9.90;;;5.10;;
13345;SDS011;6742;48.036;15.780;2023-06-22T11:00:52;12.82;;;4.72;;
13345;SDS011;6742;48.036;15.780;2023-06-22T11:03:19;7.53;;;5.10;;
13345;SDS011;6742;48.036;15.780;2023-06-22T11:05:46;6.95;;;4.80;;
13345;SDS011;6742;48.036;15.780;2023-06-22T11:08:13;8.05;;;4.72;;
13345;SDS011;6742;48.036;15.780;2023-06-22T11:10:41;6.88;;;4.55;;
13345;SDS011;6742;48.036;15.780;2023-06-22T11:13:08;8.90;;;4.47;;
13345;SDS011;6742;48.036;15.780;2023-06-22T11:15:35;7.40;;;4.53;;
13345;SDS011;6742;48.036;15.780;2023-06-22T11:18:02;9.32;;;4.70;;
13345;SDS011;6742;48.036;15.780;2023-06-22T11:20:32;8.18;;;4.30;;
13345;SDS011;6742;48.036;15.780;2023-06-22T11:23:03;5.82;;;4.43;;
13345;SDS011;6742;48.036;15.780;2023-06-22T11:25:30;6.10;;;4.40;;
13345;SDS011;6742;48.036;15.780;2023-06-22T11:27:58;7.50;;;4.65;;
13345;SDS011;6742;48.036;15.780;2023-06-22T11:30:25;7.75;;;4.72;;
13345;SDS011;6742;48.036;15.780;2023-06-22T11:32:52;6.43;;;4.22;;
13345;SDS011;6742;48.036;15.780;2023-06-22T11:35:19;7.82;;;4.78;;
13345;SDS011;6742;48.036;15.780;2023-06-22T11:37:46;6.57;;;4.25;;
13345;SDS011;6742;48.036;15.780;2023-06-22T11:40:13;8.55;;;4.50;;
13345;SDS011;6742;48.036;15.780;2023-06-22T11:42:40;7.68;;;4.70;;
13345;SDS011;6742;48.036;15.780;2023-06-22T11:45:09;6.68;;;4.38;;
13345;SDS011;6742;48.036;15.780;2023-06-22T11:47:36;8.77;;;4.68;;
13345;SDS011;6742;48.036;15.780;2023-06-22T11:50:04;7.82;;;4.72;;
13345;SDS011;6742;48.036;15.780;2023-06-22T11:52:33;7.55;;;4.60;;
13345;SDS011;6742;48.036;15.780;2023-06-22T11:55:00;8.15;;;4.80;;
13345;SDS011;6742;48.036;15.780;2023-06-22T11:57:28;10.35;;;4.80;;
13345;SDS011;6742;48.036;15.780;2023-06-22T11:59:56;7.80;;;4.65;;
13345;SDS011;6742;48.036;15.780;2023-06-22T12:02:24;8.90;;;4.85;;
13345;SDS011;6742;48.036;15.780;2023-06-22T12:04:51;7.72;;;4.75;;
13345;SDS011;6742;48.036;15.780;2023-06-22T12:07:21;9.38;;;4.45;;
13345;SDS011;6742;48.036;15.780;2023-06-22T12:09:48;6.32;;;4.45;;
13345;SDS011;6742;48.036;15.780;2023-06-22T12:12:15;8.38;;;4.82;;
13345;SDS011;6742;48.036;15.780;2023-06-22T12:14:42;8.80;;;4.93;;
13345;SDS011;6742;48.036;15.780;2023-06-22T12:17:08;7.88;;;4.80;;
13345;SDS011;6742;48.036;15.780;2023-06-22T12:19:37;12.02;;;5.00;;
13345;SDS011;6742;48.036;15.780;2023-06-22T12:22:04;6.03;;;4.70;;
13345;SDS011;6742;48.036;15.780;2023-06-22T12:24:30;9.20;;;4.40;;
13345;SDS011;6742;48.036;15.780;2023-06-22T12:26:57;7.25;;;4.50;;
13345;SDS011;6742;48.036;15.780;2023-06-22T12:29:24;8.45;;;4.50;;
13345;SDS011;6742;48.036;15.780;2023-06-22T12:31:51;10.02;;;4.85;;
13345;SDS011;6742;48.036;15.780;2023-06-22T12:34:18;7.32;;;4.53;;
13345;SDS011;6742;48.036;15.780;2023-06-22T12:36:46;6.47;;;5.00;;
13345;SDS011;6742;48.036;15.780;2023-06-22T12:39:14;6.82;;;4.65;;
13345;SDS011;6742;48.036;15.780;2023-06-22T12:41:41;5.57;;;4.70;;
13345;SDS011;6742;48.036;15.780;2023-06-22T12:44:08;7.65;;;4.53;;
13345;SDS011;6742;48.036;15.780;2023-06-22T12:46:35;9.45;;;5.10;;
13345;SDS011;6742;48.036;15.780;2023-06-22T12:49:03;8.65;;;4.82;;
13345;SDS011;6742;48.036;15.780;2023-06-22T12:51:30;8.85;;;5.00;;
13345;SDS011;6742;48.036;15.780;2023-06-22T12:53:58;8.18;;;4.72;;
13345;SDS011;6742;48.036;15.780;2023-06-22T12:56:25;6.53;;;5.07;;
13345;SDS011;6742;48.036;15.780;2023-06-22T12:58:52;7.13;;;4.90;;
13345;SDS011;6742;48.036;15.780;2023-06-22T13:01:19;6.47;;;5.07;;
13345;SDS011;6742;48.036;15.780;2023-06-22T13:03:47;8.60;;;5.35;;
13345;SDS011;6742;48.036;15.780;2023-06-22T13:06:14;8.30;;;4.90;;
13345;SDS011;6742;48.036;15.780;2023-06-22T13:08:41;10.05;;;4.65;;
13345;SDS011;6742;48.036;15.780;2023-06-22T13:11:09;6.70;;;5.18;;
13345;SDS011;6742;48.036;15.780;2023-06-22T13:13:36;9.13;;;5.45;;
13345;SDS011;6742;48.036;15.780;2023-06-22T13:16:04;7.40;;;4.78;;
13345;SDS011;6742;48.036;15.780;2023-06-22T13:18:31;7.70;;;4.57;;
13345;SDS011;6742;48.036;15.780;2023-06-22T13:20:59;9.57;;;5.35;;
13345;SDS011;6742;48.036;15.780;2023-06-22T13:23:26;6.30;;;4.80;;
13345;SDS011;6742;48.036;15.780;2023-06-22T13:25:53;10.00;;;5.55;;
13345;SDS011;6742;48.036;15.780;2023-06-22T13:28:24;8.55;;;5.53;;
13345;SDS011;6742;48.036;15.780;2023-06-22T13:30:50;8.85;;;5.22;;
13345;SDS011;6742;48.036;15.780;2023-06-22T13:33:17;8.50;;;5.53;;
13345;SDS011;6742;48.036;15.780;2023-06-22T13:35:44;12.32;;;5.25;;
13345;SDS011;6742;48.036;15.780;2023-06-22T13:38:11;9.98;;;5.60;;
13345;SDS011;6742;48.036;15.780;2023-06-22T13:40:38;11.18;;;5.60;;
13345;SDS011;6742;48.036;15.780;2023-06-22T13:43:05;8.48;;;5.10;;
13345;SDS011;6742;48.036;15.780;2023-06-22T13:45:33;10.05;;;5.28;;
13345;SDS011;6742;48.036;15.780;2023-06-22T13:48:00;9.20;;;5.35;;
13345;SDS011;6742;48.036;15.780;2023-06-22T13:50:27;8.23;;;5.22;;
13345;SDS011;6742;48.036;15.780;2023-06-22T13:52:55;7.85;;;5.10;;
13345;SDS011;6742;48.036;15.780;2023-06-22T13:55:22;8.43;;;5.50;;
13345;SDS011;6742;48.036;15.780;2023-06-22T13:57:49;10.00;;;5.63;;
13345;SDS011;6742;48.036;15.780;2023-06-22T14:00:16;10.27;;;5.88;;
13345;SDS011;6742;48.036;15.780;2023-06-22T14:02:45;8.48;;;5.50;;
13345;SDS011;6742;48.036;15.780;2023-06-22T14:05:12;7.93;;;6.30;;
13345;SDS011;6742;48.036;15.780;2023-06-22T14:07:39;9.05;;;5.97;;
13345;SDS011;6742;48.036;15.780;2023-06-22T14:10:06;8.40;;;5.32;;
13345;SDS011;6742;48.036;15.780;2023-06-22T14:12:33;7.20;;;5.80;;
13345;SDS011;6742;48.036;15.780;2023-06-22T14:15:00;9.48;;;5.80;;
13345;SDS011;6742;48.036;15.780;2023-06-22T14:17:27;9.13;;;5.70;;
13345;SDS011;6742;48.036;15.780;2023-06-22T14:19:55;11.88;;;6.63;;
13345;SDS011;6742;48.036;15.780;2023-06-22T14:22:22;7.55;;;6.03;;
13345;SDS011;6742;48.036;15.780;2023-06-22T14:24:49;8.10;;;5.70;;
13345;SDS011;6742;48.036;15.780;2023-06-22T14:27:16;8.48;;;5.63;;
13345;SDS011;6742;48.036;15.780;2023-06-22T14:29:43;7.88;;;6.13;;
13345;SDS011;6742;48.036;15.780;2023-06-22T14:32:10;10.52;;;6.07;;
13345;SDS011;6742;48.036;15.780;2023-06-22T14:34:37;12.75;;;6.00;;
13345;SDS011;6742;48.036;15.780;2023-06-22T14:37:07;9.20;;;5.95;;
13345;SDS011;6742;48.036;15.780;2023-06-22T14:39:34;7.60;;;5.47;;
13345;SDS011;6742;48.036;15.780;2023-06-22T14:42:01;7.65;;;5.93;;
13345;SDS011;6742;48.036;15.780;2023-06-22T14:44:29;7.47;;;6.30;;
13345;SDS011;6742;48.036;15.780;2023-06-22T14:46:56;10.65;;;6.63;;
13345;SDS011;6742;48.036;15.780;2023-06-22T14:49:23;9.43;;;6.68;;